sensor_id;sensor_type;location;lat;lon;timestamp;P1;durP1;ratioP1;P2;durP2;ratioP2
12425;SDS011;6277;49.824;9.562;2022-09-12T00:03:32;21.63;;;2.78;;
12425;SDS011;6277;49.824;9.562;2022-09-12T00:05:58;48.63;;;4.70;;
12425;SDS011;6277;49.824;9.562;2022-09-12T00:08:24;11.82;;;2.50;;
12425;SDS011;6277;49.824;9.562;2022-09-12T00:10:49;3.72;;;2.42;;
12425;SDS011;6277;49.824;9.562;2022-09-12T00:13:15;4.03;;;1.80;;
12425;SDS011;6277;49.824;9.562;2022-09-12T00:15:41;10.10;;;2.40;;
12425;SDS011;6277;49.824;9.562;2022-09-12T00:18:08;2.70;;;2.50;;
12425;SDS011;6277;49.824;9.562;2022-09-12T00:20:41;3.08;;;2.63;;
12425;SDS011;6277;49.824;9.562;2022-09-12T00:23:08;3.58;;;3.13;;
12425;SDS011;6277;49.824;9.562;2022-09-12T00:25:33;4.40;;;3.65;;
12425;SDS011;6277;49.824;9.562;2022-09-12T00:28:04;3.97;;;3.58;;
12425;SDS011;6277;49.824;9.562;2022-09-12T00:30:30;3.90;;;3.50;;
12425;SDS011;6277;49.824;9.562;2022-09-12T00:32:55;4.30;;;3.90;;
12425;SDS011;6277;49.824;9.562;2022-09-12T00:35:21;6.78;;;5.78;;
12425;SDS011;6277;49.824;9.562;2022-09-12T00:37:46;6.90;;;5.65;;
12425;SDS011;6277;49.824;9.562;2022-09-12T00:40:12;7.00;;;5.53;;
12425;SDS011;6277;49.824;9.562;2022-09-12T00:42:38;6.30;;;5.28;;
12425;SDS011;6277;49.824;9.562;2022-09-12T00:45:04;6.85;;;5.82;;
12425;SDS011;6277;49.824;9.562;2022-09-12T00:47:30;5.72;;;5.13;;
12425;SDS011;6277;49.824;9.562;2022-09-12T00:49:58;4.95;;;4.32;;
12425;SDS011;6277;49.824;9.562;2022-09-12T00:52:41;4.63;;;4.18;;
12425;SDS011;6277;49.824;9.562;2022-09-12T00:55:16;6.88;;;5.80;;
12425;SDS011;6277;49.824;9.562;2022-09-12T00:57:53;5.47;;;4.57;;
12425;SDS011;6277;49.824;9.562;2022-09-12T01:00:24;6.13;;;5.53;;
12425;SDS011;6277;49.824;9.562;2022-09-12T01:02:52;5.97;;;5.38;;
12425;SDS011;6277;49.824;9.562;2022-09-12T01:05:21;6.28;;;5.68;;
12425;SDS011;6277;49.824;9.562;2022-09-12T01:07:49;7.32;;;6.30;;
12425;SDS011;6277;49.824;9.562;2022-09-12T01:10:16;8.15;;;5.90;;
12425;SDS011;6277;49.824;9.562;2022-09-12T01:12:43;6.32;;;5.35;;
12425;SDS011;6277;49.824;9.562;2022-09-12T01:15:10;12.82;;;5.05;;
12425;SDS011;6277;49.824;9.562;2022-09-12T01:17:40;23.38;;;5.70;;
12425;SDS011;6277;49.824;9.562;2022-09-12T01:25:41;17.90;;;5.00;;
12425;SDS011;6277;49.824;9.562;2022-09-12T01:31:33;12.18;;;5.47;;
12425;SDS011;6277;49.824;9.562;2022-09-12T01:34:24;10.65;;;4.15;;
12425;SDS011;6277;49.824;9.562;2022-09-12T01:37:11;8.77;;;3.90;;
12425;SDS011;6277;49.824;9.562;2022-09-12T01:45:20;11.32;;;4.68;;
12425;SDS011;6277;49.824;9.562;2022-09-12T01:47:58;23.95;;;4.22;;
12425;SDS011;6277;49.824;9.562;2022-09-12T01:50:32;27.75;;;5.57;;
12425;SDS011;6277;49.824;9.562;2022-09-12T01:53:03;77.05;;;7.70;;
12425;SDS011;6277;49.824;9.562;2022-09-12T01:55:35;47.63;;;6.18;;
12425;SDS011;6277;49.824;9.562;2022-09-12T01:58:19;35.78;;;4.90;;
12425;SDS011;6277;49.824;9.562;2022-09-12T02:00:54;19.63;;;3.70;;
12425;SDS011;6277;49.824;9.562;2022-09-12T02:06:19;32.33;;;4.40;;
12425;SDS011;6277;49.824;9.562;2022-09-12T02:09:51;24.60;;;4.32;;
12425;SDS011;6277;49.824;9.562;2022-09-12T02:11:58;23.17;;;3.90;;
12425;SDS011;6277;49.824;9.562;2022-09-12T02:14:32;41.03;;;4.63;;
12425;SDS011;6277;49.824;9.562;2022-09-12T02:17:10;24.25;;;4.90;;
12425;SDS011;6277;49.824;9.562;2022-09-12T02:19:45;45.70;;;5.75;;
12425;SDS011;6277;49.824;9.562;2022-09-12T02:22:16;60.60;;;6.10;;
12425;SDS011;6277;49.824;9.562;2022-09-12T02:24:45;34.42;;;4.53;;
12425;SDS011;6277;49.824;9.562;2022-09-12T02:29:46;22.65;;;3.97;;
12425;SDS011;6277;49.824;9.562;2022-09-12T02:35:13;27.87;;;4.67;;
12425;SDS011;6277;49.824;9.562;2022-09-12T02:37:55;9.85;;;3.08;;
12425;SDS011;6277;49.824;9.562;2022-09-12T02:40:31;10.43;;;3.30;;
12425;SDS011;6277;49.824;9.562;2022-09-12T02:42:58;3.15;;;2.58;;
12425;SDS011;6277;49.824;9.562;2022-09-12T02:45:25;9.98;;;2.92;;
12425;SDS011;6277;49.824;9.562;2022-09-12T02:47:59;3.58;;;2.33;;
12425;SDS011;6277;49.824;9.562;2022-09-12T02:50:26;5.50;;;2.60;;
12425;SDS011;6277;49.824;9.562;2022-09-12T02:52:52;6.47;;;3.15;;
12425;SDS011;6277;49.824;9.562;2022-09-12T02:55:19;2.90;;;2.13;;
12425;SDS011;6277;49.824;9.562;2022-09-12T02:57:45;7.32;;;2.55;;
12425;SDS011;6277;49.824;9.562;2022-09-12T03:00:11;2.80;;;2.60;;
12425;SDS011;6277;49.824;9.562;2022-09-12T03:02:51;3.30;;;2.72;;
12425;SDS011;6277;49.824;9.562;2022-09-12T03:05:46;3.08;;;2.78;;
12425;SDS011;6277;49.824;9.562;2022-09-12T03:14:34;3.65;;;3.35;;
12425;SDS011;6277;49.824;9.562;2022-09-12T03:23:16;21.58;;;3.60;;
12425;SDS011;6277;49.824;9.562;2022-09-12T03:26:12;5.90;;;3.13;;
12425;SDS011;6277;49.824;9.562;2022-09-12T03:28:44;22.05;;;4.45;;
12425;SDS011;6277;49.824;9.562;2022-09-12T03:31:13;4.70;;;2.92;;
12425;SDS011;6277;49.824;9.562;2022-09-12T03:33:43;19.38;;;3.60;;
12425;SDS011;6277;49.824;9.562;2022-09-12T03:36:13;29.92;;;4.28;;
12425;SDS011;6277;49.824;9.562;2022-09-12T03:41:08;40.28;;;4.40;;
12425;SDS011;6277;49.824;9.562;2022-09-12T03:43:34;43.22;;;4.45;;
12425;SDS011;6277;49.824;9.562;2022-09-12T03:45:59;19.35;;;4.18;;
12425;SDS011;6277;49.824;9.562;2022-09-12T03:48:25;12.00;;;3.70;;
12425;SDS011;6277;49.824;9.562;2022-09-12T03:50:51;3.65;;;3.08;;
12425;SDS011;6277;49.824;9.562;2022-09-12T03:53:16;8.07;;;3.92;;
12425;SDS011;6277;49.824;9.562;2022-09-12T03:55:41;4.88;;;3.47;;
12425;SDS011;6277;49.824;9.562;2022-09-12T03:58:07;4.28;;;3.75;;
12425;SDS011;6277;49.824;9.562;2022-09-12T04:00:32;7.68;;;3.05;;
12425;SDS011;6277;49.824;9.562;2022-09-12T04:02:58;8.88;;;3.30;;
12425;SDS011;6277;49.824;9.562;2022-09-12T04:05:24;8.18;;;3.45;;
12425;SDS011;6277;49.824;9.562;2022-09-12T04:07:50;8.90;;;3.35;;
12425;SDS011;6277;49.824;9.562;2022-09-12T04:10:16;10.70;;;3.30;;
12425;SDS011;6277;49.824;9.562;2022-09-12T04:12:42;16.33;;;3.60;;
12425;SDS011;6277;49.824;9.562;2022-09-12T04:15:08;4.50;;;2.63;;
12425;SDS011;6277;49.824;9.562;2022-09-12T04:17:34;41.92;;;3.95;;
12425;SDS011;6277;49.824;9.562;2022-09-12T04:19:59;20.20;;;2.28;;
12425;SDS011;6277;49.824;9.562;2022-09-12T04:22:25;35.60;;;3.42;;
12425;SDS011;6277;49.824;9.562;2022-09-12T04:24:51;29.13;;;4.03;;
12425;SDS011;6277;49.824;9.562;2022-09-12T04:27:16;50.67;;;3.97;;
12425;SDS011;6277;49.824;9.562;2022-09-12T04:29:42;54.22;;;4.65;;
12425;SDS011;6277;49.824;9.562;2022-09-12T04:32:08;4.90;;;1.88;;
12425;SDS011;6277;49.824;9.562;2022-09-12T04:34:33;11.60;;;2.00;;
12425;SDS011;6277;49.824;9.562;2022-09-12T04:36:59;85.15;;;4.65;;
12425;SDS011;6277;49.824;9.562;2022-09-12T04:39:24;78.47;;;5.90;;
12425;SDS011;6277;49.824;9.562;2022-09-12T04:41:50;48.38;;;5.07;;
12425;SDS011;6277;49.824;9.562;2022-09-12T04:44:16;59.13;;;6.05;;
12425;SDS011;6277;49.824;9.562;2022-09-12T04:46:44;32.05;;;4.03;;
12425;SDS011;6277;49.824;9.562;2022-09-12T04:49:11;10.73;;;3.70;;
12425;SDS011;6277;49.824;9.562;2022-09-12T04:51:38;8.82;;;2.80;;
12425;SDS011;6277;49.824;9.562;2022-09-12T04:54:06;9.02;;;2.72;;
12425;SDS011;6277;49.824;9.562;2022-09-12T04:56:38;3.63;;;2.67;;
12425;SDS011;6277;49.824;9.562;2022-09-12T04:59:05;2.47;;;2.28;;
12425;SDS011;6277;49.824;9.562;2022-09-12T05:01:32;4.20;;;2.92;;
12425;SDS011;6277;49.824;9.562;2022-09-12T05:03:58;10.20;;;2.70;;
12425;SDS011;6277;49.824;9.562;2022-09-12T05:06:25;2.60;;;2.38;;
12425;SDS011;6277;49.824;9.562;2022-09-12T05:08:52;3.42;;;2.70;;
12425;SDS011;6277;49.824;9.562;2022-09-12T05:11:20;6.85;;;2.85;;
12425;SDS011;6277;49.824;9.562;2022-09-12T05:13:48;2.40;;;2.20;;
12425;SDS011;6277;49.824;9.562;2022-09-12T05:16:15;2.72;;;2.53;;
12425;SDS011;6277;49.824;9.562;2022-09-12T05:18:41;14.57;;;3.20;;
12425;SDS011;6277;49.824;9.562;2022-09-12T05:21:09;23.48;;;3.65;;
12425;SDS011;6277;49.824;9.562;2022-09-12T05:23:36;6.13;;;2.72;;
12425;SDS011;6277;49.824;9.562;2022-09-12T05:26:02;15.23;;;3.83;;
12425;SDS011;6277;49.824;9.562;2022-09-12T05:28:31;6.45;;;3.00;;
12425;SDS011;6277;49.824;9.562;2022-09-12T05:31:11;6.50;;;2.75;;
12425;SDS011;6277;49.824;9.562;2022-09-12T05:33:39;3.55;;;2.60;;
12425;SDS011;6277;49.824;9.562;2022-09-12T05:36:08;2.85;;;2.63;;
12425;SDS011;6277;49.824;9.562;2022-09-12T05:38:35;4.93;;;2.55;;
12425;SDS011;6277;49.824;9.562;2022-09-12T05:41:05;4.30;;;2.90;;
12425;SDS011;6277;49.824;9.562;2022-09-12T05:43:34;6.23;;;2.70;;
12425;SDS011;6277;49.824;9.562;2022-09-12T05:46:05;7.90;;;2.60;;
12425;SDS011;6277;49.824;9.562;2022-09-12T05:48:35;23.43;;;3.20;;
12425;SDS011;6277;49.824;9.562;2022-09-12T05:51:02;11.82;;;2.42;;
12425;SDS011;6277;49.824;9.562;2022-09-12T05:53:33;10.82;;;2.92;;
12425;SDS011;6277;49.824;9.562;2022-09-12T05:56:11;9.25;;;2.67;;
12425;SDS011;6277;49.824;9.562;2022-09-12T05:58:39;4.55;;;2.25;;
12425;SDS011;6277;49.824;9.562;2022-09-12T06:01:07;16.70;;;3.00;;
12425;SDS011;6277;49.824;9.562;2022-09-12T06:03:35;6.10;;;3.22;;
12425;SDS011;6277;49.824;9.562;2022-09-12T06:06:28;16.92;;;3.83;;
12425;SDS011;6277;49.824;9.562;2022-09-12T06:08:56;5.18;;;2.80;;
12425;SDS011;6277;49.824;9.562;2022-09-12T06:11:24;12.68;;;3.15;;
12425;SDS011;6277;49.824;9.562;2022-09-12T06:13:51;5.38;;;2.97;;
12425;SDS011;6277;49.824;9.562;2022-09-12T06:16:18;6.25;;;2.72;;
12425;SDS011;6277;49.824;9.562;2022-09-12T06:18:46;9.23;;;2.90;;
12425;SDS011;6277;49.824;9.562;2022-09-12T06:21:16;8.35;;;2.90;;
12425;SDS011;6277;49.824;9.562;2022-09-12T06:23:42;11.60;;;2.90;;
12425;SDS011;6277;49.824;9.562;2022-09-12T06:26:10;4.32;;;2.88;;
12425;SDS011;6277;49.824;9.562;2022-09-12T06:28:37;20.08;;;3.90;;
12425;SDS011;6277;49.824;9.562;2022-09-12T06:31:08;5.95;;;3.00;;
12425;SDS011;6277;49.824;9.562;2022-09-12T06:33:36;7.38;;;3.13;;
12425;SDS011;6277;49.824;9.562;2022-09-12T06:38:30;8.18;;;3.15;;
12425;SDS011;6277;49.824;9.562;2022-09-12T06:40:56;6.20;;;3.25;;
12425;SDS011;6277;49.824;9.562;2022-09-12T06:43:22;20.58;;;4.38;;
12425;SDS011;6277;49.824;9.562;2022-09-12T06:45:48;5.10;;;3.40;;
12425;SDS011;6277;49.824;9.562;2022-09-12T06:48:14;9.63;;;3.60;;
12425;SDS011;6277;49.824;9.562;2022-09-12T06:50:39;7.20;;;3.70;;
12425;SDS011;6277;49.824;9.562;2022-09-12T06:53:05;6.40;;;3.75;;
12425;SDS011;6277;49.824;9.562;2022-09-12T06:55:31;7.03;;;3.55;;
12425;SDS011;6277;49.824;9.562;2022-09-12T06:57:57;4.38;;;3.63;;
12425;SDS011;6277;49.824;9.562;2022-09-12T07:00:23;5.13;;;4.03;;
12425;SDS011;6277;49.824;9.562;2022-09-12T07:02:52;7.18;;;4.10;;
12425;SDS011;6277;49.824;9.562;2022-09-12T07:05:21;7.97;;;5.05;;
12425;SDS011;6277;49.824;9.562;2022-09-12T07:07:47;9.27;;;4.88;;
12425;SDS011;6277;49.824;9.562;2022-09-12T07:10:12;5.45;;;4.18;;
12425;SDS011;6277;49.824;9.562;2022-09-12T07:12:38;13.90;;;5.80;;
12425;SDS011;6277;49.824;9.562;2022-09-12T07:15:04;4.88;;;4.30;;
12425;SDS011;6277;49.824;9.562;2022-09-12T07:17:30;26.48;;;4.65;;
12425;SDS011;6277;49.824;9.562;2022-09-12T07:19:55;11.80;;;4.82;;
12425;SDS011;6277;49.824;9.562;2022-09-12T07:22:21;11.50;;;5.80;;
12425;SDS011;6277;49.824;9.562;2022-09-12T07:24:46;24.73;;;5.15;;
12425;SDS011;6277;49.824;9.562;2022-09-12T07:27:12;6.93;;;4.90;;
12425;SDS011;6277;49.824;9.562;2022-09-12T07:29:38;17.30;;;5.32;;
12425;SDS011;6277;49.824;9.562;2022-09-12T07:32:04;8.70;;;4.63;;
12425;SDS011;6277;49.824;9.562;2022-09-12T07:34:30;10.85;;;5.00;;
12425;SDS011;6277;49.824;9.562;2022-09-12T07:36:56;10.88;;;5.45;;
12425;SDS011;6277;49.824;9.562;2022-09-12T07:39:22;9.55;;;8.43;;
12425;SDS011;6277;49.824;9.562;2022-09-12T07:41:48;11.27;;;6.28;;
12425;SDS011;6277;49.824;9.562;2022-09-12T07:44:13;9.48;;;5.68;;
12425;SDS011;6277;49.824;9.562;2022-09-12T07:46:39;7.00;;;5.50;;
12425;SDS011;6277;49.824;9.562;2022-09-12T07:49:04;18.15;;;6.10;;
12425;SDS011;6277;49.824;9.562;2022-09-12T07:51:30;10.00;;;5.28;;
12425;SDS011;6277;49.824;9.562;2022-09-12T07:53:56;14.55;;;5.55;;
12425;SDS011;6277;49.824;9.562;2022-09-12T07:56:22;7.95;;;6.10;;
12425;SDS011;6277;49.824;9.562;2022-09-12T07:58:49;8.40;;;5.88;;
12425;SDS011;6277;49.824;9.562;2022-09-12T08:01:16;7.00;;;4.95;;
12425;SDS011;6277;49.824;9.562;2022-09-12T08:03:44;8.18;;;5.10;;
12425;SDS011;6277;49.824;9.562;2022-09-12T08:06:18;8.57;;;5.75;;
12425;SDS011;6277;49.824;9.562;2022-09-12T08:08:45;6.60;;;5.40;;
12425;SDS011;6277;49.824;9.562;2022-09-12T08:11:12;12.27;;;5.70;;
12425;SDS011;6277;49.824;9.562;2022-09-12T08:13:40;6.82;;;5.72;;
12425;SDS011;6277;49.824;9.562;2022-09-12T08:16:07;6.15;;;5.32;;
12425;SDS011;6277;49.824;9.562;2022-09-12T08:18:41;7.20;;;5.50;;
12425;SDS011;6277;49.824;9.562;2022-09-12T08:21:11;8.02;;;5.70;;
12425;SDS011;6277;49.824;9.562;2022-09-12T08:23:46;6.70;;;5.53;;
12425;SDS011;6277;49.824;9.562;2022-09-12T08:26:11;7.47;;;5.80;;
12425;SDS011;6277;49.824;9.562;2022-09-12T08:28:37;6.90;;;5.40;;
12425;SDS011;6277;49.824;9.562;2022-09-12T08:31:09;6.97;;;5.20;;
12425;SDS011;6277;49.824;9.562;2022-09-12T08:33:36;7.25;;;5.85;;
12425;SDS011;6277;49.824;9.562;2022-09-12T08:36:06;6.80;;;5.13;;
12425;SDS011;6277;49.824;9.562;2022-09-12T08:38:35;8.35;;;6.15;;
12425;SDS011;6277;49.824;9.562;2022-09-12T08:41:10;9.38;;;6.43;;
12425;SDS011;6277;49.824;9.562;2022-09-12T08:47:16;6.82;;;5.55;;
12425;SDS011;6277;49.824;9.562;2022-09-12T08:55:01;7.93;;;5.95;;
12425;SDS011;6277;49.824;9.562;2022-09-12T08:57:30;6.72;;;5.75;;
12425;SDS011;6277;49.824;9.562;2022-09-12T08:59:56;6.97;;;5.53;;
12425;SDS011;6277;49.824;9.562;2022-09-12T09:05:11;6.35;;;5.45;;
12425;SDS011;6277;49.824;9.562;2022-09-12T09:11:03;5.30;;;4.68;;
12425;SDS011;6277;49.824;9.562;2022-09-12T09:16:43;6.60;;;4.53;;
12425;SDS011;6277;49.824;9.562;2022-09-12T09:19:18;5.80;;;4.85;;
12425;SDS011;6277;49.824;9.562;2022-09-12T09:24:26;5.68;;;4.55;;
12425;SDS011;6277;49.824;9.562;2022-09-12T09:27:01;5.55;;;4.95;;
12425;SDS011;6277;49.824;9.562;2022-09-12T09:29:38;5.72;;;5.13;;
12425;SDS011;6277;49.824;9.562;2022-09-12T09:34:55;4.78;;;4.28;;
12425;SDS011;6277;49.824;9.562;2022-09-12T09:37:31;4.38;;;3.97;;
12425;SDS011;6277;49.824;9.562;2022-09-12T09:40:22;4.85;;;4.38;;
12425;SDS011;6277;49.824;9.562;2022-09-12T09:43:10;6.90;;;4.13;;
12425;SDS011;6277;49.824;9.562;2022-09-12T09:45:44;4.80;;;4.30;;
12425;SDS011;6277;49.824;9.562;2022-09-12T09:50:35;5.65;;;4.38;;
12425;SDS011;6277;49.824;9.562;2022-09-12T09:53:02;4.53;;;4.07;;
12425;SDS011;6277;49.824;9.562;2022-09-12T09:55:33;4.47;;;4.07;;
12425;SDS011;6277;49.824;9.562;2022-09-12T09:58:05;4.43;;;4.03;;
12425;SDS011;6277;49.824;9.562;2022-09-12T10:00:31;4.30;;;3.90;;
12425;SDS011;6277;49.824;9.562;2022-09-12T10:05:34;4.90;;;4.40;;
12425;SDS011;6277;49.824;9.562;2022-09-12T10:08:28;5.22;;;4.72;;
12425;SDS011;6277;49.824;9.562;2022-09-12T10:10:56;4.57;;;4.18;;
12425;SDS011;6277;49.824;9.562;2022-09-12T10:13:35;4.88;;;4.38;;
12425;SDS011;6277;49.824;9.562;2022-09-12T10:18:56;4.20;;;3.72;;
12425;SDS011;6277;49.824;9.562;2022-09-12T10:21:38;4.35;;;3.85;;
12425;SDS011;6277;49.824;9.562;2022-09-12T10:27:06;4.07;;;3.78;;
12425;SDS011;6277;49.824;9.562;2022-09-12T10:32:26;4.15;;;3.75;;
12425;SDS011;6277;49.824;9.562;2022-09-12T10:35:24;5.70;;;3.50;;
12425;SDS011;6277;49.824;9.562;2022-09-12T10:37:56;3.92;;;3.47;;
12425;SDS011;6277;49.824;9.562;2022-09-12T10:40:28;4.30;;;3.90;;
12425;SDS011;6277;49.824;9.562;2022-09-12T10:48:42;3.83;;;3.45;;
12425;SDS011;6277;49.824;9.562;2022-09-12T10:51:14;3.60;;;3.30;;
12425;SDS011;6277;49.824;9.562;2022-09-12T10:53:56;3.50;;;3.20;;
12425;SDS011;6277;49.824;9.562;2022-09-12T10:56:32;3.78;;;3.47;;
12425;SDS011;6277;49.824;9.562;2022-09-12T10:59:06;4.25;;;3.85;;
12425;SDS011;6277;49.824;9.562;2022-09-12T11:01:58;3.60;;;3.30;;
12425;SDS011;6277;49.824;9.562;2022-09-12T11:04:37;3.45;;;3.15;;
12425;SDS011;6277;49.824;9.562;2022-09-12T11:07:25;3.70;;;3.40;;
12425;SDS011;6277;49.824;9.562;2022-09-12T11:12:51;3.75;;;3.38;;
12425;SDS011;6277;49.824;9.562;2022-09-12T11:21:08;3.53;;;3.22;;
12425;SDS011;6277;49.824;9.562;2022-09-12T11:29:20;3.50;;;3.20;;
12425;SDS011;6277;49.824;9.562;2022-09-12T11:32:17;3.85;;;3.55;;
12425;SDS011;6277;49.824;9.562;2022-09-12T11:35:15;3.53;;;3.22;;
12425;SDS011;6277;49.824;9.562;2022-09-12T11:38:04;3.85;;;3.55;;
12425;SDS011;6277;49.824;9.562;2022-09-12T11:45:50;4.40;;;4.00;;
12425;SDS011;6277;49.824;9.562;2022-09-12T11:51:22;4.40;;;4.00;;
12425;SDS011;6277;49.824;9.562;2022-09-12T11:54:35;3.83;;;3.53;;
12425;SDS011;6277;49.824;9.562;2022-09-12T11:56:59;4.25;;;3.85;;
12425;SDS011;6277;49.824;9.562;2022-09-12T11:59:34;4.50;;;4.05;;
12425;SDS011;6277;49.824;9.562;2022-09-12T12:02:12;3.88;;;3.53;;
12425;SDS011;6277;49.824;9.562;2022-09-12T12:07:29;4.18;;;3.80;;
12425;SDS011;6277;49.824;9.562;2022-09-12T12:10:03;6.85;;;3.78;;
12425;SDS011;6277;49.824;9.562;2022-09-12T12:12:29;4.50;;;3.58;;
12425;SDS011;6277;49.824;9.562;2022-09-12T12:14:56;4.15;;;3.85;;
12425;SDS011;6277;49.824;9.562;2022-09-12T12:17:23;5.13;;;4.63;;
12425;SDS011;6277;49.824;9.562;2022-09-12T12:20:00;4.53;;;4.13;;
12425;SDS011;6277;49.824;9.562;2022-09-12T12:22:28;4.13;;;3.72;;
12425;SDS011;6277;49.824;9.562;2022-09-12T12:27:58;4.40;;;3.60;;
12425;SDS011;6277;49.824;9.562;2022-09-12T12:33:01;3.85;;;3.55;;
12425;SDS011;6277;49.824;9.562;2022-09-12T12:38:25;3.60;;;3.30;;
12425;SDS011;6277;49.824;9.562;2022-09-12T12:43:49;4.65;;;4.25;;
12425;SDS011;6277;49.824;9.562;2022-09-12T12:46:17;4.40;;;4.00;;
12425;SDS011;6277;49.824;9.562;2022-09-12T12:48:51;4.82;;;4.43;;
12425;SDS011;6277;49.824;9.562;2022-09-12T12:57:05;5.00;;;4.03;;
12425;SDS011;6277;49.824;9.562;2022-09-12T12:59:51;4.88;;;4.38;;
12425;SDS011;6277;49.824;9.562;2022-09-12T13:02:20;4.68;;;4.28;;
12425;SDS011;6277;49.824;9.562;2022-09-12T13:04:52;4.43;;;4.03;;
12425;SDS011;6277;49.824;9.562;2022-09-12T13:07:29;4.28;;;3.80;;
12425;SDS011;6277;49.824;9.562;2022-09-12T13:09:57;4.82;;;4.20;;
12425;SDS011;6277;49.824;9.562;2022-09-12T13:12:28;5.43;;;4.47;;
12425;SDS011;6277;49.824;9.562;2022-09-12T13:15:01;4.65;;;3.90;;
12425;SDS011;6277;49.824;9.562;2022-09-12T13:22:45;3.60;;;3.30;;
12425;SDS011;6277;49.824;9.562;2022-09-12T13:25:34;3.63;;;3.33;;
12425;SDS011;6277;49.824;9.562;2022-09-12T13:30:36;4.03;;;3.72;;
12425;SDS011;6277;49.824;9.562;2022-09-12T13:44:07;3.97;;;3.28;;
12425;SDS011;6277;49.824;9.562;2022-09-12T13:46:35;2.50;;;2.30;;
12425;SDS011;6277;49.824;9.562;2022-09-12T13:49:05;2.58;;;2.38;;
12425;SDS011;6277;49.824;9.562;2022-09-12T13:51:56;2.65;;;2.45;;
12425;SDS011;6277;49.824;9.562;2022-09-12T13:54:53;2.85;;;2.65;;
12425;SDS011;6277;49.824;9.562;2022-09-12T13:57:32;2.60;;;2.40;;
12425;SDS011;6277;49.824;9.562;2022-09-12T14:00:04;2.50;;;2.30;;
12425;SDS011;6277;49.824;9.562;2022-09-12T14:02:33;2.60;;;2.35;;
12425;SDS011;6277;49.824;9.562;2022-09-12T14:05:00;2.40;;;2.20;;
12425;SDS011;6277;49.824;9.562;2022-09-12T14:10:21;2.70;;;2.50;;
12425;SDS011;6277;49.824;9.562;2022-09-12T14:12:54;3.28;;;2.78;;
12425;SDS011;6277;49.824;9.562;2022-09-12T14:15:23;2.60;;;2.40;;
12425;SDS011;6277;49.824;9.562;2022-09-12T14:17:58;2.65;;;2.45;;
12425;SDS011;6277;49.824;9.562;2022-09-12T14:20:26;2.38;;;2.17;;
12425;SDS011;6277;49.824;9.562;2022-09-12T14:23:08;2.30;;;2.10;;
12425;SDS011;6277;49.824;9.562;2022-09-12T14:25:54;2.22;;;2.03;;
12425;SDS011;6277;49.824;9.562;2022-09-12T14:28:22;2.60;;;2.33;;
12425;SDS011;6277;49.824;9.562;2022-09-12T14:31:00;2.88;;;1.90;;
12425;SDS011;6277;49.824;9.562;2022-09-12T14:33:31;2.30;;;2.10;;
12425;SDS011;6277;49.824;9.562;2022-09-12T14:36:11;1.80;;;1.70;;
12425;SDS011;6277;49.824;9.562;2022-09-12T14:38:44;2.00;;;1.90;;
12425;SDS011;6277;49.824;9.562;2022-09-12T14:41:13;1.58;;;1.48;;
12425;SDS011;6277;49.824;9.562;2022-09-12T14:43:49;1.70;;;1.60;;
12425;SDS011;6277;49.824;9.562;2022-09-12T14:46:36;1.88;;;1.70;;
12425;SDS011;6277;49.824;9.562;2022-09-12T14:49:11;2.20;;;2.00;;
12425;SDS011;6277;49.824;9.562;2022-09-12T14:56:55;1.73;;;1.63;;
12425;SDS011;6277;49.824;9.562;2022-09-12T15:07:37;2.17;;;1.98;;
12425;SDS011;6277;49.824;9.562;2022-09-12T15:10:18;1.90;;;1.80;;
12425;SDS011;6277;49.824;9.562;2022-09-12T15:15:29;1.65;;;1.55;;
12425;SDS011;6277;49.824;9.562;2022-09-12T15:17:55;2.10;;;1.90;;
12425;SDS011;6277;49.824;9.562;2022-09-12T15:20:21;1.90;;;1.80;;
12425;SDS011;6277;49.824;9.562;2022-09-12T15:22:48;1.98;;;1.80;;
12425;SDS011;6277;49.824;9.562;2022-09-12T15:25:14;1.67;;;1.58;;
12425;SDS011;6277;49.824;9.562;2022-09-12T15:27:40;1.80;;;1.70;;
12425;SDS011;6277;49.824;9.562;2022-09-12T15:30:09;2.33;;;2.10;;
12425;SDS011;6277;49.824;9.562;2022-09-12T15:32:37;1.75;;;1.65;;
12425;SDS011;6277;49.824;9.562;2022-09-12T15:35:16;1.90;;;1.70;;
12425;SDS011;6277;49.824;9.562;2022-09-12T15:37:45;2.00;;;1.80;;
12425;SDS011;6277;49.824;9.562;2022-09-12T15:40:11;2.38;;;2.03;;
12425;SDS011;6277;49.824;9.562;2022-09-12T15:42:37;1.90;;;1.80;;
12425;SDS011;6277;49.824;9.562;2022-09-12T15:47:41;2.33;;;2.03;;
12425;SDS011;6277;49.824;9.562;2022-09-12T15:50:07;1.90;;;1.70;;
12425;SDS011;6277;49.824;9.562;2022-09-12T15:52:32;2.00;;;1.80;;
12425;SDS011;6277;49.824;9.562;2022-09-12T15:54:58;1.75;;;1.65;;
12425;SDS011;6277;49.824;9.562;2022-09-12T15:57:24;1.67;;;1.58;;
12425;SDS011;6277;49.824;9.562;2022-09-12T15:59:49;1.63;;;1.52;;
12425;SDS011;6277;49.824;9.562;2022-09-12T16:02:15;1.67;;;1.58;;
12425;SDS011;6277;49.824;9.562;2022-09-12T16:04:40;1.40;;;1.30;;
12425;SDS011;6277;49.824;9.562;2022-09-12T16:07:06;1.77;;;1.67;;
12425;SDS011;6277;49.824;9.562;2022-09-12T16:09:31;2.15;;;1.95;;
12425;SDS011;6277;49.824;9.562;2022-09-12T16:11:57;1.63;;;1.52;;
12425;SDS011;6277;49.824;9.562;2022-09-12T16:14:23;1.80;;;1.52;;
12425;SDS011;6277;49.824;9.562;2022-09-12T16:16:52;1.58;;;1.42;;
12425;SDS011;6277;49.824;9.562;2022-09-12T16:19:18;1.38;;;1.27;;
12425;SDS011;6277;49.824;9.562;2022-09-12T16:21:44;1.35;;;1.25;;
12425;SDS011;6277;49.824;9.562;2022-09-12T16:24:10;1.50;;;1.30;;
12425;SDS011;6277;49.824;9.562;2022-09-12T16:26:35;1.50;;;1.40;;
12425;SDS011;6277;49.824;9.562;2022-09-12T16:29:01;1.63;;;1.50;;
12425;SDS011;6277;49.824;9.562;2022-09-12T16:31:27;1.25;;;1.15;;
12425;SDS011;6277;49.824;9.562;2022-09-12T16:33:52;1.60;;;1.50;;
12425;SDS011;6277;49.824;9.562;2022-09-12T16:36:19;1.65;;;1.42;;
12425;SDS011;6277;49.824;9.562;2022-09-12T16:38:46;1.50;;;1.40;;
12425;SDS011;6277;49.824;9.562;2022-09-12T16:41:14;2.75;;;1.40;;
12425;SDS011;6277;49.824;9.562;2022-09-12T16:43:40;2.08;;;1.50;;
12425;SDS011;6277;49.824;9.562;2022-09-12T16:46:11;1.50;;;1.40;;
12425;SDS011;6277;49.824;9.562;2022-09-12T16:48:43;1.40;;;1.30;;
12425;SDS011;6277;49.824;9.562;2022-09-12T16:51:13;2.13;;;1.40;;
12425;SDS011;6277;49.824;9.562;2022-09-12T16:53:40;1.70;;;1.60;;
12425;SDS011;6277;49.824;9.562;2022-09-12T16:56:07;1.70;;;1.60;;
12425;SDS011;6277;49.824;9.562;2022-09-12T16:58:34;2.13;;;1.77;;
12425;SDS011;6277;49.824;9.562;2022-09-12T17:01:02;1.50;;;1.40;;
12425;SDS011;6277;49.824;9.562;2022-09-12T17:03:29;1.60;;;1.50;;
12425;SDS011;6277;49.824;9.562;2022-09-12T17:05:58;1.60;;;1.50;;
12425;SDS011;6277;49.824;9.562;2022-09-12T17:08:25;1.48;;;1.38;;
12425;SDS011;6277;49.824;9.562;2022-09-12T17:10:52;2.13;;;1.52;;
12425;SDS011;6277;49.824;9.562;2022-09-12T17:13:26;1.63;;;1.52;;
12425;SDS011;6277;49.824;9.562;2022-09-12T17:15:52;1.60;;;1.50;;
12425;SDS011;6277;49.824;9.562;2022-09-12T17:18:17;1.52;;;1.42;;
12425;SDS011;6277;49.824;9.562;2022-09-12T17:20:43;2.03;;;1.83;;
12425;SDS011;6277;49.824;9.562;2022-09-12T17:23:08;1.85;;;1.60;;
12425;SDS011;6277;49.824;9.562;2022-09-12T17:25:34;1.88;;;1.67;;
12425;SDS011;6277;49.824;9.562;2022-09-12T17:28:00;3.13;;;1.88;;
12425;SDS011;6277;49.824;9.562;2022-09-12T17:30:29;2.72;;;1.70;;
12425;SDS011;6277;49.824;9.562;2022-09-12T17:32:54;1.67;;;1.58;;
12425;SDS011;6277;49.824;9.562;2022-09-12T17:35:20;2.20;;;1.80;;
12425;SDS011;6277;49.824;9.562;2022-09-12T17:37:46;2.90;;;1.70;;
12425;SDS011;6277;49.824;9.562;2022-09-12T17:40:11;2.20;;;1.75;;
12425;SDS011;6277;49.824;9.562;2022-09-12T17:42:37;1.85;;;1.75;;
12425;SDS011;6277;49.824;9.562;2022-09-12T17:45:05;1.80;;;1.45;;
12425;SDS011;6277;49.824;9.562;2022-09-12T17:47:30;2.10;;;1.88;;
12425;SDS011;6277;49.824;9.562;2022-09-12T17:49:56;3.38;;;2.13;;
12425;SDS011;6277;49.824;9.562;2022-09-12T17:52:23;2.45;;;2.03;;
12425;SDS011;6277;49.824;9.562;2022-09-12T17:54:49;1.85;;;1.63;;
12425;SDS011;6277;49.824;9.562;2022-09-12T17:57:14;2.40;;;1.90;;
12425;SDS011;6277;49.824;9.562;2022-09-12T17:59:40;2.17;;;1.95;;
12425;SDS011;6277;49.824;9.562;2022-09-12T18:02:09;2.35;;;1.88;;
12425;SDS011;6277;49.824;9.562;2022-09-12T18:04:40;2.15;;;1.95;;